sensor_id;sensor_type;location;lat;lon;timestamp;temperature;humidity
69225;DHT22;56333;51.306;17.056;2024-01-25T00:01:09;7.99;69.35
69225;DHT22;56333;51.306;17.056;2024-01-25T00:02:34;8.00;69.10
69225;DHT22;56333;51.306;17.056;2024-01-25T00:03:58;7.93;68.97
69225;DHT22;56333;51.306;17.056;2024-01-25T00:05:22;7.97;69.10
69225;DHT22;56333;51.306;17.056;2024-01-25T00:06:46;7.97;69.00
69225;DHT22;56333;51.306;17.056;2024-01-25T00:08:10;7.93;68.82
69225;DHT22;56333;51.306;17.056;2024-01-25T00:09:34;7.94;68.88
69225;DHT22;56333;51.306;17.056;2024-01-25T00:11:01;7.96;68.82
69225;DHT22;56333;51.306;17.056;2024-01-25T00:12:25;7.93;68.82
69225;DHT22;56333;51.306;17.056;2024-01-25T00:13:50;7.94;68.82
69225;DHT22;56333;51.306;17.056;2024-01-25T00:15:14;7.92;68.60
69225;DHT22;56333;51.306;17.056;2024-01-25T00:16:41;7.87;68.65
69225;DHT22;56333;51.306;17.056;2024-01-25T00:18:05;7.85;68.72
69225;DHT22;56333;51.306;17.056;2024-01-25T00:19:29;7.82;68.85
69225;DHT22;56333;51.306;17.056;2024-01-25T00:20:53;7.81;68.82
69225;DHT22;56333;51.306;17.056;2024-01-25T00:22:19;7.75;68.80
69225;DHT22;56333;51.306;17.056;2024-01-25T00:23:43;7.75;68.72
69225;DHT22;56333;51.306;17.056;2024-01-25T00:25:07;7.74;68.78
69225;DHT22;56333;51.306;17.056;2024-01-25T00:26:31;7.74;68.85
69225;DHT22;56333;51.306;17.056;2024-01-25T00:27:55;7.75;68.82
69225;DHT22;56333;51.306;17.056;2024-01-25T00:29:20;7.73;68.85
69225;DHT22;56333;51.306;17.056;2024-01-25T00:30:44;7.73;68.82
69225;DHT22;56333;51.306;17.056;2024-01-25T00:32:08;7.74;69.00
69225;DHT22;56333;51.306;17.056;2024-01-25T00:33:32;7.74;69.00
69225;DHT22;56333;51.306;17.056;2024-01-25T00:34:57;7.70;69.10
69225;DHT22;56333;51.306;17.056;2024-01-25T00:36:25;7.70;69.35
69225;DHT22;56333;51.306;17.056;2024-01-25T00:37:51;7.71;69.28
69225;DHT22;56333;51.306;17.056;2024-01-25T00:39:21;7.70;69.43
69225;DHT22;56333;51.306;17.056;2024-01-25T00:40:47;7.73;69.43
69225;DHT22;56333;51.306;17.056;2024-01-25T00:42:13;7.75;69.50
69225;DHT22;56333;51.306;17.056;2024-01-25T00:43:38;7.78;69.45
69225;DHT22;56333;51.306;17.056;2024-01-25T00:45:06;7.76;69.32
69225;DHT22;56333;51.306;17.056;2024-01-25T00:46:33;7.78;69.30
69225;DHT22;56333;51.306;17.056;2024-01-25T00:48:00;7.79;69.30
69225;DHT22;56333;51.306;17.056;2024-01-25T00:49:26;7.79;69.28
69225;DHT22;56333;51.306;17.056;2024-01-25T00:50:52;7.81;69.38
69225;DHT22;56333;51.306;17.056;2024-01-25T00:52:19;7.80;69.35
69225;DHT22;56333;51.306;17.056;2024-01-25T00:53:45;7.79;69.63
69225;DHT22;56333;51.306;17.056;2024-01-25T00:55:13;7.79;69.53
69225;DHT22;56333;51.306;17.056;2024-01-25T00:56:40;7.82;69.50
69225;DHT22;56333;51.306;17.056;2024-01-25T00:58:06;7.83;69.53
69225;DHT22;56333;51.306;17.056;2024-01-25T00:59:33;7.83;69.38
69225;DHT22;56333;51.306;17.056;2024-01-25T01:01:01;7.86;69.10
69225;DHT22;56333;51.306;17.056;2024-01-25T01:02:26;7.85;69.07
69225;DHT22;56333;51.306;17.056;2024-01-25T01:03:53;7.85;69.10
69225;DHT22;56333;51.306;17.056;2024-01-25T01:05:23;7.84;69.00
69225;DHT22;56333;51.306;17.056;2024-01-25T01:06:49;7.84;68.97
69225;DHT22;56333;51.306;17.056;2024-01-25T01:08:16;7.80;68.95
69225;DHT22;56333;51.306;17.056;2024-01-25T01:09:41;7.82;68.95
69225;DHT22;56333;51.306;17.056;2024-01-25T01:11:05;7.83;68.90
69225;DHT22;56333;51.306;17.056;2024-01-25T01:12:30;7.84;68.75
69225;DHT22;56333;51.306;17.056;2024-01-25T01:13:54;7.85;68.60
69225;DHT22;56333;51.306;17.056;2024-01-25T01:15:19;7.86;68.43
69225;DHT22;56333;51.306;17.056;2024-01-25T01:16:43;7.87;68.47
69225;DHT22;56333;51.306;17.056;2024-01-25T01:18:07;7.88;68.32
69225;DHT22;56333;51.306;17.056;2024-01-25T01:19:31;7.87;68.10
69225;DHT22;56333;51.306;17.056;2024-01-25T01:20:55;7.87;67.72
69225;DHT22;56333;51.306;17.056;2024-01-25T01:22:19;7.86;67.82
69225;DHT22;56333;51.306;17.056;2024-01-25T01:23:44;7.87;67.28
69225;DHT22;56333;51.306;17.056;2024-01-25T01:25:08;7.88;67.43
69225;DHT22;56333;51.306;17.056;2024-01-25T01:26:32;7.88;67.38
69225;DHT22;56333;51.306;17.056;2024-01-25T01:27:57;7.88;67.03
69225;DHT22;56333;51.306;17.056;2024-01-25T01:29:21;7.89;66.72
69225;DHT22;56333;51.306;17.056;2024-01-25T01:30:45;7.93;66.72
69225;DHT22;56333;51.306;17.056;2024-01-25T01:32:10;7.90;66.20
69225;DHT22;56333;51.306;17.056;2024-01-25T01:33:34;7.90;66.03
69225;DHT22;56333;51.306;17.056;2024-01-25T01:34:58;7.89;65.63
69225;DHT22;56333;51.306;17.056;2024-01-25T01:36:22;7.90;65.93
69225;DHT22;56333;51.306;17.056;2024-01-25T01:37:47;7.91;65.95
69225;DHT22;56333;51.306;17.056;2024-01-25T01:39:11;7.90;65.47
69225;DHT22;56333;51.306;17.056;2024-01-25T01:40:35;7.89;65.57
69225;DHT22;56333;51.306;17.056;2024-01-25T01:41:59;7.91;65.55
69225;DHT22;56333;51.306;17.056;2024-01-25T01:43:23;7.90;65.43
69225;DHT22;56333;51.306;17.056;2024-01-25T01:44:47;7.91;65.22
69225;DHT22;56333;51.306;17.056;2024-01-25T01:46:20;7.89;64.97
69225;DHT22;56333;51.306;17.056;2024-01-25T01:47:56;7.92;64.78
69225;DHT22;56333;51.306;17.056;2024-01-25T01:49:21;7.94;64.78
69225;DHT22;56333;51.306;17.056;2024-01-25T01:50:46;7.95;64.88
69225;DHT22;56333;51.306;17.056;2024-01-25T01:55:21;7.95;64.75
69225;DHT22;56333;51.306;17.056;2024-01-25T01:56:45;7.94;64.50
69225;DHT22;56333;51.306;17.056;2024-01-25T01:58:10;7.96;64.63
69225;DHT22;56333;51.306;17.056;2024-01-25T01:59:34;7.95;64.57
69225;DHT22;56333;51.306;17.056;2024-01-25T02:00:58;7.97;64.32
69225;DHT22;56333;51.306;17.056;2024-01-25T02:02:24;7.93;64.40
69225;DHT22;56333;51.306;17.056;2024-01-25T02:03:49;7.94;64.60
69225;DHT22;56333;51.306;17.056;2024-01-25T02:05:13;7.94;64.18
69225;DHT22;56333;51.306;17.056;2024-01-25T02:06:37;7.93;64.18
69225;DHT22;56333;51.306;17.056;2024-01-25T02:08:03;7.92;64.03
69225;DHT22;56333;51.306;17.056;2024-01-25T02:09:29;7.92;64.20
69225;DHT22;56333;51.306;17.056;2024-01-25T02:10:53;7.91;64.25
69225;DHT22;56333;51.306;17.056;2024-01-25T02:12:17;7.93;64.38
69225;DHT22;56333;51.306;17.056;2024-01-25T02:13:42;7.93;64.18
69225;DHT22;56333;51.306;17.056;2024-01-25T02:15:06;7.91;64.35
69225;DHT22;56333;51.306;17.056;2024-01-25T02:16:31;7.93;64.55
69225;DHT22;56333;51.306;17.056;2024-01-25T02:17:56;7.91;64.25
69225;DHT22;56333;51.306;17.056;2024-01-25T02:19:20;7.91;64.25
69225;DHT22;56333;51.306;17.056;2024-01-25T02:20:44;7.90;64.25
69225;DHT22;56333;51.306;17.056;2024-01-25T02:22:08;7.91;64.18
69225;DHT22;56333;51.306;17.056;2024-01-25T02:23:32;7.91;64.10
69225;DHT22;56333;51.306;17.056;2024-01-25T02:24:57;7.91;63.95
69225;DHT22;56333;51.306;17.056;2024-01-25T02:26:22;7.91;63.95
69225;DHT22;56333;51.306;17.056;2024-01-25T02:27:46;7.91;64.18
69225;DHT22;56333;51.306;17.056;2024-01-25T02:29:10;7.89;63.97
69225;DHT22;56333;51.306;17.056;2024-01-25T02:30:34;7.89;63.80
69225;DHT22;56333;51.306;17.056;2024-01-25T02:31:59;7.89;63.88
69225;DHT22;56333;51.306;17.056;2024-01-25T02:33:23;7.86;64.05
69225;DHT22;56333;51.306;17.056;2024-01-25T02:34:48;7.86;64.03
69225;DHT22;56333;51.306;17.056;2024-01-25T02:36:12;7.83;64.20
69225;DHT22;56333;51.306;17.056;2024-01-25T02:37:36;7.82;64.20
69225;DHT22;56333;51.306;17.056;2024-01-25T02:39:01;7.82;64.20
69225;DHT22;56333;51.306;17.056;2024-01-25T02:40:26;7.79;64.43
69225;DHT22;56333;51.306;17.056;2024-01-25T02:41:50;7.77;64.25
69225;DHT22;56333;51.306;17.056;2024-01-25T02:43:14;7.77;64.22
69225;DHT22;56333;51.306;17.056;2024-01-25T02:44:38;7.75;64.30
69225;DHT22;56333;51.306;17.056;2024-01-25T02:46:02;7.75;64.22
69225;DHT22;56333;51.306;17.056;2024-01-25T02:47:26;7.75;64.30
69225;DHT22;56333;51.306;17.056;2024-01-25T02:48:50;7.76;64.57
69225;DHT22;56333;51.306;17.056;2024-01-25T02:50:14;7.74;64.60
69225;DHT22;56333;51.306;17.056;2024-01-25T02:51:38;7.77;64.57
69225;DHT22;56333;51.306;17.056;2024-01-25T02:53:03;7.77;64.50
69225;DHT22;56333;51.306;17.056;2024-01-25T02:54:27;7.76;64.47
69225;DHT22;56333;51.306;17.056;2024-01-25T02:55:51;7.77;64.68
69225;DHT22;56333;51.306;17.056;2024-01-25T02:57:16;7.78;64.78
69225;DHT22;56333;51.306;17.056;2024-01-25T02:58:42;7.80;64.88
69225;DHT22;56333;51.306;17.056;2024-01-25T03:00:09;7.78;64.88
69225;DHT22;56333;51.306;17.056;2024-01-25T03:01:40;7.76;64.88
69225;DHT22;56333;51.306;17.056;2024-01-25T03:03:06;7.75;64.93
69225;DHT22;56333;51.306;17.056;2024-01-25T03:04:30;7.73;65.15
69225;DHT22;56333;51.306;17.056;2024-01-25T03:05:54;7.70;65.28
69225;DHT22;56333;51.306;17.056;2024-01-25T03:07:18;7.70;65.40
69225;DHT22;56333;51.306;17.056;2024-01-25T03:08:42;7.71;65.35
69225;DHT22;56333;51.306;17.056;2024-01-25T03:10:08;7.70;65.43
69225;DHT22;56333;51.306;17.056;2024-01-25T03:11:32;7.72;65.18
69225;DHT22;56333;51.306;17.056;2024-01-25T03:12:57;7.75;65.15
69225;DHT22;56333;51.306;17.056;2024-01-25T03:14:21;7.75;64.97
69225;DHT22;56333;51.306;17.056;2024-01-25T03:15:45;7.74;64.60
69225;DHT22;56333;51.306;17.056;2024-01-25T03:17:09;7.78;64.57
69225;DHT22;56333;51.306;17.056;2024-01-25T03:18:34;7.78;64.80
69225;DHT22;56333;51.306;17.056;2024-01-25T03:19:58;7.77;64.45
69225;DHT22;56333;51.306;17.056;2024-01-25T03:21:22;7.77;64.55
69225;DHT22;56333;51.306;17.056;2024-01-25T03:22:46;7.80;64.68
69225;DHT22;56333;51.306;17.056;2024-01-25T03:24:10;7.78;64.82
69225;DHT22;56333;51.306;17.056;2024-01-25T03:25:35;7.78;64.90
69225;DHT22;56333;51.306;17.056;2024-01-25T03:26:59;7.81;64.95
69225;DHT22;56333;51.306;17.056;2024-01-25T03:28:23;7.79;65.03
69225;DHT22;56333;51.306;17.056;2024-01-25T03:29:48;7.79;65.20
69225;DHT22;56333;51.306;17.056;2024-01-25T03:31:11;7.80;65.32
69225;DHT22;56333;51.306;17.056;2024-01-25T03:32:35;7.80;65.35
69225;DHT22;56333;51.306;17.056;2024-01-25T03:33:59;7.78;65.00
69225;DHT22;56333;51.306;17.056;2024-01-25T03:35:24;7.80;64.88
69225;DHT22;56333;51.306;17.056;2024-01-25T03:36:48;7.82;64.90
69225;DHT22;56333;51.306;17.056;2024-01-25T03:38:14;7.85;65.30
69225;DHT22;56333;51.306;17.056;2024-01-25T03:39:39;7.84;65.70
69225;DHT22;56333;51.306;17.056;2024-01-25T03:41:03;7.80;65.70
69225;DHT22;56333;51.306;17.056;2024-01-25T03:42:28;7.80;65.57
69225;DHT22;56333;51.306;17.056;2024-01-25T03:43:52;7.78;65.75
69225;DHT22;56333;51.306;17.056;2024-01-25T03:45:17;7.75;65.63
69225;DHT22;56333;51.306;17.056;2024-01-25T03:46:41;7.74;65.60
69225;DHT22;56333;51.306;17.056;2024-01-25T03:48:06;7.75;65.60
69225;DHT22;56333;51.306;17.056;2024-01-25T03:49:30;7.75;66.00
69225;DHT22;56333;51.306;17.056;2024-01-25T03:50:54;7.75;66.45
69225;DHT22;56333;51.306;17.056;2024-01-25T03:52:18;7.75;66.28
69225;DHT22;56333;51.306;17.056;2024-01-25T03:53:42;7.73;66.15
69225;DHT22;56333;51.306;17.056;2024-01-25T03:55:07;7.74;65.65
69225;DHT22;56333;51.306;17.056;2024-01-25T03:56:32;7.72;65.95
69225;DHT22;56333;51.306;17.056;2024-01-25T03:57:55;7.72;66.25
69225;DHT22;56333;51.306;17.056;2024-01-25T03:59:20;7.72;66.28
69225;DHT22;56333;51.306;17.056;2024-01-25T04:00:44;7.70;66.10
69225;DHT22;56333;51.306;17.056;2024-01-25T04:02:08;7.68;66.03
69225;DHT22;56333;51.306;17.056;2024-01-25T04:03:32;7.68;66.18
69225;DHT22;56333;51.306;17.056;2024-01-25T04:04:57;7.68;66.22
69225;DHT22;56333;51.306;17.056;2024-01-25T04:06:21;7.68;66.13
69225;DHT22;56333;51.306;17.056;2024-01-25T04:07:45;7.70;66.13
69225;DHT22;56333;51.306;17.056;2024-01-25T04:09:09;7.74;66.10
69225;DHT22;56333;51.306;17.056;2024-01-25T04:10:33;7.72;66.07
69225;DHT22;56333;51.306;17.056;2024-01-25T04:11:57;7.73;65.82
69225;DHT22;56333;51.306;17.056;2024-01-25T04:13:22;7.72;66.03
69225;DHT22;56333;51.306;17.056;2024-01-25T04:14:46;7.71;65.88
69225;DHT22;56333;51.306;17.056;2024-01-25T04:16:10;7.72;65.72
69225;DHT22;56333;51.306;17.056;2024-01-25T04:17:36;7.71;65.80
69225;DHT22;56333;51.306;17.056;2024-01-25T04:19:01;7.72;66.07
69225;DHT22;56333;51.306;17.056;2024-01-25T04:20:24;7.72;65.90
69225;DHT22;56333;51.306;17.056;2024-01-25T04:21:48;7.72;66.07
69225;DHT22;56333;51.306;17.056;2024-01-25T04:23:13;7.71;66.13
69225;DHT22;56333;51.306;17.056;2024-01-25T04:24:37;7.74;66.32
69225;DHT22;56333;51.306;17.056;2024-01-25T04:26:01;7.74;66.20
69225;DHT22;56333;51.306;17.056;2024-01-25T04:27:26;7.74;66.25
69225;DHT22;56333;51.306;17.056;2024-01-25T04:28:49;7.73;66.32
69225;DHT22;56333;51.306;17.056;2024-01-25T04:30:14;7.69;66.63
69225;DHT22;56333;51.306;17.056;2024-01-25T04:31:43;7.70;66.88
69225;DHT22;56333;51.306;17.056;2024-01-25T04:33:08;7.68;66.97
69225;DHT22;56333;51.306;17.056;2024-01-25T04:34:32;7.64;67.20
69225;DHT22;56333;51.306;17.056;2024-01-25T04:35:56;7.58;67.85
69225;DHT22;56333;51.306;17.056;2024-01-25T04:37:20;7.54;68.15
69225;DHT22;56333;51.306;17.056;2024-01-25T04:38:44;7.55;68.25
69225;DHT22;56333;51.306;17.056;2024-01-25T04:40:10;7.52;68.50
69225;DHT22;56333;51.306;17.056;2024-01-25T04:41:34;7.50;68.68
69225;DHT22;56333;51.306;17.056;2024-01-25T04:42:59;7.47;68.88
69225;DHT22;56333;51.306;17.056;2024-01-25T04:44:23;7.43;69.13
69225;DHT22;56333;51.306;17.056;2024-01-25T04:45:46;7.44;69.15
69225;DHT22;56333;51.306;17.056;2024-01-25T04:47:10;7.44;69.38
69225;DHT22;56333;51.306;17.056;2024-01-25T04:48:33;7.39;69.57
69225;DHT22;56333;51.306;17.056;2024-01-25T04:49:58;7.36;69.72
69225;DHT22;56333;51.306;17.056;2024-01-25T04:51:23;7.34;69.85
69225;DHT22;56333;51.306;17.056;2024-01-25T04:52:47;7.30;70.13
69225;DHT22;56333;51.306;17.056;2024-01-25T04:54:11;7.27;70.30
69225;DHT22;56333;51.306;17.056;2024-01-25T04:55:37;7.27;70.25
69225;DHT22;56333;51.306;17.056;2024-01-25T04:57:01;7.25;70.38
69225;DHT22;56333;51.306;17.056;2024-01-25T04:58:28;7.23;70.57
69225;DHT22;56333;51.306;17.056;2024-01-25T04:59:52;7.21;70.68
69225;DHT22;56333;51.306;17.056;2024-01-25T05:01:16;7.22;70.70
69225;DHT22;56333;51.306;17.056;2024-01-25T05:02:40;7.23;70.75
69225;DHT22;56333;51.306;17.056;2024-01-25T05:04:05;7.23;70.70
69225;DHT22;56333;51.306;17.056;2024-01-25T05:05:29;7.24;70.70
69225;DHT22;56333;51.306;17.056;2024-01-25T05:06:53;7.24;70.68
69225;DHT22;56333;51.306;17.056;2024-01-25T05:08:18;7.24;70.60
69225;DHT22;56333;51.306;17.056;2024-01-25T05:09:41;7.23;70.60
69225;DHT22;56333;51.306;17.056;2024-01-25T05:11:06;7.23;70.55
69225;DHT22;56333;51.306;17.056;2024-01-25T05:12:30;7.24;70.63
69225;DHT22;56333;51.306;17.056;2024-01-25T05:13:54;7.26;70.55
69225;DHT22;56333;51.306;17.056;2024-01-25T05:15:19;7.26;70.63
69225;DHT22;56333;51.306;17.056;2024-01-25T05:16:43;7.24;70.68
69225;DHT22;56333;51.306;17.056;2024-01-25T05:18:08;7.24;70.68
69225;DHT22;56333;51.306;17.056;2024-01-25T05:19:32;7.26;70.63
69225;DHT22;56333;51.306;17.056;2024-01-25T05:20:56;7.29;70.47
69225;DHT22;56333;51.306;17.056;2024-01-25T05:22:20;7.30;70.25
69225;DHT22;56333;51.306;17.056;2024-01-25T05:23:44;7.32;70.22
69225;DHT22;56333;51.306;17.056;2024-01-25T05:25:09;7.32;70.07
69225;DHT22;56333;51.306;17.056;2024-01-25T05:26:32;7.32;70.22
69225;DHT22;56333;51.306;17.056;2024-01-25T05:27:57;7.33;70.32
69225;DHT22;56333;51.306;17.056;2024-01-25T05:29:21;7.32;70.30
69225;DHT22;56333;51.306;17.056;2024-01-25T05:30:45;7.33;70.35
69225;DHT22;56333;51.306;17.056;2024-01-25T05:32:09;7.34;70.30
69225;DHT22;56333;51.306;17.056;2024-01-25T05:33:33;7.32;69.95
69225;DHT22;56333;51.306;17.056;2024-01-25T05:34:57;7.34;69.90
69225;DHT22;56333;51.306;17.056;2024-01-25T05:36:21;7.37;69.82
69225;DHT22;56333;51.306;17.056;2024-01-25T05:37:45;7.38;69.25
69225;DHT22;56333;51.306;17.056;2024-01-25T05:39:10;7.43;69.30
69225;DHT22;56333;51.306;17.056;2024-01-25T05:40:34;7.42;69.13
69225;DHT22;56333;51.306;17.056;2024-01-25T05:41:58;7.44;69.15
69225;DHT22;56333;51.306;17.056;2024-01-25T05:43:23;7.45;69.13
69225;DHT22;56333;51.306;17.056;2024-01-25T05:44:47;7.43;69.15
69225;DHT22;56333;51.306;17.056;2024-01-25T05:46:10;7.43;69.05
69225;DHT22;56333;51.306;17.056;2024-01-25T05:47:35;7.43;69.07
69225;DHT22;56333;51.306;17.056;2024-01-25T05:48:59;7.44;68.88
69225;DHT22;56333;51.306;17.056;2024-01-25T05:50:23;7.47;68.72
69225;DHT22;56333;51.306;17.056;2024-01-25T05:51:47;7.46;68.68
69225;DHT22;56333;51.306;17.056;2024-01-25T05:53:11;7.46;68.70
69225;DHT22;56333;51.306;17.056;2024-01-25T05:54:36;7.49;68.72
69225;DHT22;56333;51.306;17.056;2024-01-25T05:56:00;7.49;68.25
69225;DHT22;56333;51.306;17.056;2024-01-25T05:57:25;7.47;68.28
69225;DHT22;56333;51.306;17.056;2024-01-25T05:58:49;7.50;68.03
69225;DHT22;56333;51.306;17.056;2024-01-25T06:00:14;7.49;67.97
69225;DHT22;56333;51.306;17.056;2024-01-25T06:01:41;7.50;67.85
69225;DHT22;56333;51.306;17.056;2024-01-25T06:03:06;7.48;67.72
69225;DHT22;56333;51.306;17.056;2024-01-25T06:04:30;7.51;67.75
69225;DHT22;56333;51.306;17.056;2024-01-25T06:05:54;7.53;67.78
69225;DHT22;56333;51.306;17.056;2024-01-25T06:07:19;7.52;67.82
69225;DHT22;56333;51.306;17.056;2024-01-25T06:08:43;7.54;67.88
69225;DHT22;56333;51.306;17.056;2024-01-25T06:10:09;7.54;68.15
69225;DHT22;56333;51.306;17.056;2024-01-25T06:11:33;7.51;68.10
69225;DHT22;56333;51.306;17.056;2024-01-25T06:12:58;7.50;68.28
69225;DHT22;56333;51.306;17.056;2024-01-25T06:14:22;7.47;68.40
69225;DHT22;56333;51.306;17.056;2024-01-25T06:15:47;7.44;68.32
69225;DHT22;56333;51.306;17.056;2024-01-25T06:17:11;7.43;68.28
69225;DHT22;56333;51.306;17.056;2024-01-25T06:18:36;7.41;68.13
69225;DHT22;56333;51.306;17.056;2024-01-25T06:20:00;7.41;67.63
69225;DHT22;56333;51.306;17.056;2024-01-25T06:21:26;7.43;67.50
69225;DHT22;56333;51.306;17.056;2024-01-25T06:22:50;7.45;67.45
69225;DHT22;56333;51.306;17.056;2024-01-25T06:24:14;7.45;67.50
69225;DHT22;56333;51.306;17.056;2024-01-25T06:25:38;7.45;67.43
69225;DHT22;56333;51.306;17.056;2024-01-25T06:27:03;7.46;67.38
69225;DHT22;56333;51.306;17.056;2024-01-25T06:28:27;7.45;67.13
69225;DHT22;56333;51.306;17.056;2024-01-25T06:29:51;7.43;67.10
69225;DHT22;56333;51.306;17.056;2024-01-25T06:31:15;7.43;66.90
69225;DHT22;56333;51.306;17.056;2024-01-25T06:32:39;7.42;66.57
69225;DHT22;56333;51.306;17.056;2024-01-25T06:34:03;7.43;66.45
69225;DHT22;56333;51.306;17.056;2024-01-25T06:35:27;7.45;66.70
69225;DHT22;56333;51.306;17.056;2024-01-25T06:36:51;7.46;66.30
69225;DHT22;56333;51.306;17.056;2024-01-25T06:38:15;7.47;66.00
69225;DHT22;56333;51.306;17.056;2024-01-25T06:39:40;7.49;66.30
69225;DHT22;56333;51.306;17.056;2024-01-25T06:41:04;7.48;65.93
69225;DHT22;56333;51.306;17.056;2024-01-25T06:42:29;7.50;66.07
69225;DHT22;56333;51.306;17.056;2024-01-25T06:43:53;7.51;65.93
69225;DHT22;56333;51.306;17.056;2024-01-25T06:45:17;7.51;65.47
69225;DHT22;56333;51.306;17.056;2024-01-25T06:46:41;7.50;65.63
69225;DHT22;56333;51.306;17.056;2024-01-25T06:48:07;7.53;65.95
69225;DHT22;56333;51.306;17.056;2024-01-25T06:49:31;7.52;65.57
69225;DHT22;56333;51.306;17.056;2024-01-25T06:50:55;7.51;65.78
69225;DHT22;56333;51.306;17.056;2024-01-25T06:52:20;7.53;65.80
69225;DHT22;56333;51.306;17.056;2024-01-25T06:53:44;7.54;65.70
69225;DHT22;56333;51.306;17.056;2024-01-25T06:55:10;7.53;65.57
69225;DHT22;56333;51.306;17.056;2024-01-25T06:56:35;7.53;65.22
69225;DHT22;56333;51.306;17.056;2024-01-25T06:57:59;7.55;65.22
69225;DHT22;56333;51.306;17.056;2024-01-25T06:59:24;7.57;65.38
69225;DHT22;56333;51.306;17.056;2024-01-25T07:00:48;7.57;65.57
69225;DHT22;56333;51.306;17.056;2024-01-25T07:02:12;7.57;65.53
69225;DHT22;56333;51.306;17.056;2024-01-25T07:03:36;7.55;65.63
69225;DHT22;56333;51.306;17.056;2024-01-25T07:05:00;7.52;65.40
69225;DHT22;56333;51.306;17.056;2024-01-25T07:06:26;7.54;65.40
69225;DHT22;56333;51.306;17.056;2024-01-25T07:07:50;7.51;65.47
69225;DHT22;56333;51.306;17.056;2024-01-25T07:09:14;7.51;65.65
69225;DHT22;56333;51.306;17.056;2024-01-25T07:10:38;7.51;65.68
69225;DHT22;56333;51.306;17.056;2024-01-25T07:12:04;7.49;65.32
69225;DHT22;56333;51.306;17.056;2024-01-25T07:13:29;7.51;65.45
69225;DHT22;56333;51.306;17.056;2024-01-25T07:14:54;7.52;65.43
69225;DHT22;56333;51.306;17.056;2024-01-25T07:16:18;7.51;65.32
69225;DHT22;56333;51.306;17.056;2024-01-25T07:17:43;7.51;65.45
69225;DHT22;56333;51.306;17.056;2024-01-25T07:19:07;7.50;65.13
69225;DHT22;56333;51.306;17.056;2024-01-25T07:20:31;7.51;65.30
69225;DHT22;56333;51.306;17.056;2024-01-25T07:21:55;7.51;65.35
69225;DHT22;56333;51.306;17.056;2024-01-25T07:23:21;7.51;65.50
69225;DHT22;56333;51.306;17.056;2024-01-25T07:24:47;7.51;65.63
69225;DHT22;56333;51.306;17.056;2024-01-25T07:26:16;7.48;65.57
69225;DHT22;56333;51.306;17.056;2024-01-25T07:27:44;7.45;65.40
69225;DHT22;56333;51.306;17.056;2024-01-25T07:29:08;7.45;65.40
69225;DHT22;56333;51.306;17.056;2024-01-25T07:30:32;7.46;65.43
69225;DHT22;56333;51.306;17.056;2024-01-25T07:31:57;7.49;65.50
69225;DHT22;56333;51.306;17.056;2024-01-25T07:33:20;7.49;65.45
69225;DHT22;56333;51.306;17.056;2024-01-25T07:34:45;7.48;65.40
69225;DHT22;56333;51.306;17.056;2024-01-25T07:36:09;7.47;65.18
69225;DHT22;56333;51.306;17.056;2024-01-25T07:37:33;7.49;65.32
69225;DHT22;56333;51.306;17.056;2024-01-25T07:38:57;7.47;65.50
69225;DHT22;56333;51.306;17.056;2024-01-25T07:40:21;7.48;65.35
69225;DHT22;56333;51.306;17.056;2024-01-25T07:41:45;7.47;65.45
69225;DHT22;56333;51.306;17.056;2024-01-25T07:43:09;7.46;65.63
69225;DHT22;56333;51.306;17.056;2024-01-25T07:44:33;7.44;65.75
69225;DHT22;56333;51.306;17.056;2024-01-25T07:45:58;7.41;65.93
69225;DHT22;56333;51.306;17.056;2024-01-25T07:47:22;7.44;66.03
69225;DHT22;56333;51.306;17.056;2024-01-25T07:48:47;7.41;65.70
69225;DHT22;56333;51.306;17.056;2024-01-25T07:50:11;7.41;65.55
69225;DHT22;56333;51.306;17.056;2024-01-25T07:51:36;7.42;65.68
69225;DHT22;56333;51.306;17.056;2024-01-25T07:53:00;7.43;65.63
69225;DHT22;56333;51.306;17.056;2024-01-25T07:54:24;7.43;65.70
69225;DHT22;56333;51.306;17.056;2024-01-25T07:55:48;7.43;65.82
69225;DHT22;56333;51.306;17.056;2024-01-25T07:57:12;7.43;65.80
69225;DHT22;56333;51.306;17.056;2024-01-25T07:58:36;7.45;65.88
69225;DHT22;56333;51.306;17.056;2024-01-25T08:00:01;7.43;65.93
69225;DHT22;56333;51.306;17.056;2024-01-25T08:01:27;7.40;65.85
69225;DHT22;56333;51.306;17.056;2024-01-25T08:02:51;7.38;65.90
69225;DHT22;56333;51.306;17.056;2024-01-25T08:04:16;7.38;65.88
69225;DHT22;56333;51.306;17.056;2024-01-25T08:05:40;7.39;65.72
69225;DHT22;56333;51.306;17.056;2024-01-25T08:07:05;7.41;65.63
69225;DHT22;56333;51.306;17.056;2024-01-25T08:08:30;7.40;65.68
69225;DHT22;56333;51.306;17.056;2024-01-25T08:09:54;7.40;65.65
69225;DHT22;56333;51.306;17.056;2024-01-25T08:11:20;7.39;65.57
69225;DHT22;56333;51.306;17.056;2024-01-25T08:12:45;7.38;65.72
69225;DHT22;56333;51.306;17.056;2024-01-25T08:14:09;7.38;65.80
69225;DHT22;56333;51.306;17.056;2024-01-25T08:15:33;7.37;65.90
69225;DHT22;56333;51.306;17.056;2024-01-25T08:16:59;7.37;65.90
69225;DHT22;56333;51.306;17.056;2024-01-25T08:18:23;7.36;65.88
69225;DHT22;56333;51.306;17.056;2024-01-25T08:19:49;7.37;65.97
69225;DHT22;56333;51.306;17.056;2024-01-25T08:21:14;7.37;66.03
69225;DHT22;56333;51.306;17.056;2024-01-25T08:22:38;7.41;65.97
69225;DHT22;56333;51.306;17.056;2024-01-25T08:24:04;7.42;66.05
69225;DHT22;56333;51.306;17.056;2024-01-25T08:25:30;7.43;65.90
69225;DHT22;56333;51.306;17.056;2024-01-25T08:26:54;7.43;65.85
69225;DHT22;56333;51.306;17.056;2024-01-25T08:28:18;7.43;65.93
69225;DHT22;56333;51.306;17.056;2024-01-25T08:29:43;7.43;65.90
69225;DHT22;56333;51.306;17.056;2024-01-25T08:31:07;7.43;65.93
69225;DHT22;56333;51.306;17.056;2024-01-25T08:32:32;7.43;65.93
69225;DHT22;56333;51.306;17.056;2024-01-25T08:33:56;7.42;65.85
69225;DHT22;56333;51.306;17.056;2024-01-25T08:35:21;7.41;65.88
69225;DHT22;56333;51.306;17.056;2024-01-25T08:36:46;7.41;65.95
69225;DHT22;56333;51.306;17.056;2024-01-25T08:38:10;7.42;66.15
69225;DHT22;56333;51.306;17.056;2024-01-25T08:39:34;7.43;66.05
69225;DHT22;56333;51.306;17.056;2024-01-25T08:44:32;7.40;66.40
69225;DHT22;56333;51.306;17.056;2024-01-25T08:45:56;7.41;66.22
69225;DHT22;56333;51.306;17.056;2024-01-25T08:47:21;7.43;66.35
69225;DHT22;56333;51.306;17.056;2024-01-25T08:48:45;7.42;66.22
69225;DHT22;56333;51.306;17.056;2024-01-25T08:50:11;7.41;66.25
69225;DHT22;56333;51.306;17.056;2024-01-25T08:51:35;7.41;66.50
69225;DHT22;56333;51.306;17.056;2024-01-25T08:52:59;7.43;66.38
69225;DHT22;56333;51.306;17.056;2024-01-25T08:54:23;7.44;66.45
69225;DHT22;56333;51.306;17.056;2024-01-25T08:55:47;7.46;66.40
69225;DHT22;56333;51.306;17.056;2024-01-25T08:57:12;7.46;66.25
69225;DHT22;56333;51.306;17.056;2024-01-25T08:58:37;7.43;66.20
69225;DHT22;56333;51.306;17.056;2024-01-25T09:00:01;7.45;66.25
69225;DHT22;56333;51.306;17.056;2024-01-25T09:01:30;7.45;66.03